Terminal Aerodrome Forecast
Issued by NWS

Home | Current Version | Previous Version | Text Only | Print | Product List | Glossary On
Versions: 1 2 3 4 5 6 7 8 9 10 11 12 13 14 15 16 17 18 19 20 21 22 23 24 25 26
000
FTUS45 KGGW 102320
TAFGDV
TAF
KGDV 102320Z 1100/1124 08009KT 1 1/2SM -SN OVC010
     FM110300 09005KT 3SM -SN OVC010
     FM110600 06005KT P6SM BKN015
     FM110800 33005KT P6SM BKN010
     FM111500 25005KT P6SM SCT030
     FM112100 22006KT P6SM BKN060
     FM112300 22006KT P6SM BKN025=

USA.gov is the U.S. government's official web portal to all federal, state and local government web resources and services.